Home > Products > Valid Products > TAF

000
FTPQ31 PGUM 041759 RRA
TAFGUM
TAF
PGUM 041759Z 0418/0518 06010KT P6SM VCSH SCT020
     FM050100 07016G26KT P6SM VCSH SCT020 SCT040
     FM050900 06011KT P6SM VCSH SCT020=



000
FTPQ31 PGUM 041759 RRA
TAFGUM
TAF
PGUM 041759Z 0418/0518 06010KT P6SM VCSH SCT020
     FM050100 07016G26KT P6SM VCSH SCT020 SCT040
     FM050900 06011KT P6SM VCSH SCT020=



000
FTPQ31 PGUM 041120
TAFGUM
TAF
PGUM 041120Z 0412/0518 06010KT P6SM VCSH SCT020
     FM050100 07016G26KT P6SM VCSH SCT020 SCT040
     FM050900 06011KT P6SM VCSH SCT020=



000
FTPQ31 PGUM 041120
TAFGUM
TAF
PGUM 041120Z 0412/0518 06010KT P6SM VCSH SCT020
     FM050100 07016G26KT P6SM VCSH SCT020 SCT040
     FM050900 06011KT P6SM VCSH SCT020=



000
FTPQ31 PGUM 040522
TAFGUM
TAF
PGUM 040522Z 0406/0512 08018G28KT P6SM FEW022 BKN035
     FM040900 07012KT P6SM VCSH SCT020
     FM050100 07016G26KT P6SM VCSH SCT020 SCT040
     FM050900 06011KT P6SM VCSH SCT020=



000
FTPQ31 PGUM 040522
TAFGUM
TAF
PGUM 040522Z 0406/0512 08018G28KT P6SM FEW022 BKN035
     FM040900 07012KT P6SM VCSH SCT020
     FM050100 07016G26KT P6SM VCSH SCT020 SCT040
     FM050900 06011KT P6SM VCSH SCT020=



000
FTPQ31 PGUM 040522
TAFGUM
TAF
PGUM 040522Z 0406/0512 08018G28KT P6SM FEW022 BKN035
     FM040900 07012KT P6SM VCSH SCT020
     FM050100 07016G26KT P6SM VCSH SCT020 SCT040
     FM050900 06011KT P6SM VCSH SCT020=



000
FTPQ31 PGUM 032330
TAFGUM
TAF
PGUM 032330Z 0400/0506 08017G28KT P6SM FEW020 SCT050
     FM040900 07012KT P6SM VCSH SCT020
     FM050100 07016G26KT P6SM SCT020 SCT050=



000
FTPQ31 PGUM 032330
TAFGUM
TAF
PGUM 032330Z 0400/0506 08017G28KT P6SM FEW020 SCT050
     FM040900 07012KT P6SM VCSH SCT020
     FM050100 07016G26KT P6SM SCT020 SCT050=



000
FTPQ31 PGUM 031720
TAFGUM
TAF
PGUM 031720Z 0318/0424 06011G19KT P6SM VCSH FEW020 SCT040
     FM040100 07016G26KT P6SM SCT020 SCT050
     FM040900 06010KT P6SM SCT018 SCT050=



000
FTPQ31 PGUM 031720
TAFGUM
TAF
PGUM 031720Z 0318/0424 06011G19KT P6SM VCSH FEW020 SCT040
     FM040100 07016G26KT P6SM SCT020 SCT050
     FM040900 06010KT P6SM SCT018 SCT050=



000
FTPQ31 PGUM 031720
TAFGUM
TAF
PGUM 031720Z 0318/0424 06011G19KT P6SM VCSH FEW020 SCT040
     FM040100 07016G26KT P6SM SCT020 SCT050
     FM040900 06010KT P6SM SCT018 SCT050=



000
FTPQ31 PGUM 031720
TAFGUM
TAF
PGUM 031720Z 0318/0424 06011G19KT P6SM VCSH FEW020 SCT040
     FM040100 07016G26KT P6SM SCT020 SCT050
     FM040900 06010KT P6SM SCT018 SCT050=



000
FTPQ31 PGUM 031120
TAFGUM
TAF
PGUM 031120Z 0312/0418 07009KT P6SM FEW020 SCT040
     FM040100 07016G26KT P6SM SCT020 SCT050
     FM040900 06010KT P6SM SCT018 SCT050=



000
FTPQ31 PGUM 031120
TAFGUM
TAF
PGUM 031120Z 0312/0418 07009KT P6SM FEW020 SCT040
     FM040100 07016G26KT P6SM SCT020 SCT050
     FM040900 06010KT P6SM SCT018 SCT050=



000
FTPQ31 PGUM 030828 AAB
TAFGUM
TAF AMD
PGUM 030828Z 0308/0412 07009KT P6SM VCSH FEW020 SCT040
     FM040100 07016G26KT P6SM VCSH SCT020 SCT050
     FM040900 06010KT P6SM VCSH SCT018 SCT050=



000
FTPQ31 PGUM 030828 AAB
TAFGUM
TAF AMD
PGUM 030828Z 0308/0412 07009KT P6SM VCSH FEW020 SCT040
     FM040100 07016G26KT P6SM VCSH SCT020 SCT050
     FM040900 06010KT P6SM VCSH SCT018 SCT050=



000
FTPQ31 PGUM 030828 AAB
TAFGUM
TAF AMD
PGUM 030828Z 0308/0412 07009KT P6SM VCSH FEW020 SCT040
     FM040100 07016G26KT P6SM VCSH SCT020 SCT050
     FM040900 06010KT P6SM VCSH SCT018 SCT050=



000
FTPQ31 PGUM 030828 AAB
TAFGUM
TAF AMD
PGUM 030828Z 0308/0412 07009KT P6SM VCSH FEW020 SCT040
     FM040100 07016G26KT P6SM VCSH SCT020 SCT050
     FM040900 06010KT P6SM VCSH SCT018 SCT050=



000
FTPQ31 PGUM 030733 AAA
TAFGUM
TAF AMD
PGUM 030733Z 0308/0412 07011KT P6SM VCSH SCT018 SCT040 SCT120
      TEMPO 0308/0309 08011G17KT 4SM RA SCT010 BKN030
     FM040100 07016G26KT P6SM VCSH SCT020 SCT050
     FM040900 06010KT P6SM VCSH SCT018 SCT050=



000
FTPQ31 PGUM 030733 AAA
TAFGUM
TAF AMD
PGUM 030733Z 0308/0412 07011KT P6SM VCSH SCT018 SCT040 SCT120
      TEMPO 0308/0309 08011G17KT 4SM RA SCT010 BKN030
     FM040100 07016G26KT P6SM VCSH SCT020 SCT050
     FM040900 06010KT P6SM VCSH SCT018 SCT050=



000
FTPQ31 PGUM 030733 AAA
TAFGUM
TAF AMD
PGUM 030733Z 0308/0412 07011KT P6SM VCSH SCT018 SCT040 SCT120
      TEMPO 0308/0309 08011G17KT 4SM RA SCT010 BKN030
     FM040100 07016G26KT P6SM VCSH SCT020 SCT050
     FM040900 06010KT P6SM VCSH SCT018 SCT050=



000
FTPQ31 PGUM 030733 AAA
TAFGUM
TAF AMD
PGUM 030733Z 0308/0412 07011KT P6SM VCSH SCT018 SCT040 SCT120
      TEMPO 0308/0309 08011G17KT 4SM RA SCT010 BKN030
     FM040100 07016G26KT P6SM VCSH SCT020 SCT050
     FM040900 06010KT P6SM VCSH SCT018 SCT050=



000
FTPQ31 PGUM 030522
TAFGUM
TAF
PGUM 030522Z 0306/0412 07017G27KT P6SM VCSH SCT018 BKN040
     FM030900 07011KT P6SM VCSH SCT018 SCT040 SCT120
     FM040100 07016G26KT P6SM VCSH SCT020 SCT050
     FM040900 06010KT P6SM VCSH SCT018 SCT050=



000
FTPQ31 PGUM 030522
TAFGUM
TAF
PGUM 030522Z 0306/0412 07017G27KT P6SM VCSH SCT018 BKN040
     FM030900 07011KT P6SM VCSH SCT018 SCT040 SCT120
     FM040100 07016G26KT P6SM VCSH SCT020 SCT050
     FM040900 06010KT P6SM VCSH SCT018 SCT050=



000
FTPQ31 PGUM 022330
TAFGUM
TAF
PGUM 022330Z 0300/0406 07014G20KT P6SM VCSH SCT020 SCT040
     FM030900 07007KT P6SM VCSH SCT020
     FM040100 07015G22KT P6SM VCSH SCT020 SCT040=



000
FTPQ31 PGUM 022330
TAFGUM
TAF
PGUM 022330Z 0300/0406 07014G20KT P6SM VCSH SCT020 SCT040
     FM030900 07007KT P6SM VCSH SCT020
     FM040100 07015G22KT P6SM VCSH SCT020 SCT040=



000
FTPQ31 PGUM 021728
TAFGUM
TAF
PGUM 021728Z 0218/0324 07008KT P6SM VCSH FEW020 SCT040
     FM022300 08016G22KT P6SM VCSH SCT020 SCT040
     FM030900 07008KT P6SM VCSH FEW020 SCT040=



000
FTPQ31 PGUM 021728
TAFGUM
TAF
PGUM 021728Z 0218/0324 07008KT P6SM VCSH FEW020 SCT040
     FM022300 08016G22KT P6SM VCSH SCT020 SCT040
     FM030900 07008KT P6SM VCSH FEW020 SCT040=



000
FTPQ31 PGUM 021120
TAFGUM
TAF
PGUM 021120Z 0212/0318 07011KT P6SM FEW020 SCT040
     FM022300 08016G22KT P6SM SCT020 SCT040
     FM030900 07011KT P6SM FEW020 SCT040=



000
FTPQ31 PGUM 021120
TAFGUM
TAF
PGUM 021120Z 0212/0318 07011KT P6SM FEW020 SCT040
     FM022300 08016G22KT P6SM SCT020 SCT040
     FM030900 07011KT P6SM FEW020 SCT040=



000
FTPQ31 PGUM 021120
TAFGUM
TAF
PGUM 021120Z 0212/0318 07011KT P6SM FEW020 SCT040
     FM022300 08016G22KT P6SM SCT020 SCT040
     FM030900 07011KT P6SM FEW020 SCT040=



000
FTPQ31 PGUM 021120
TAFGUM
TAF
PGUM 021120Z 0212/0318 07011KT P6SM FEW020 SCT040
     FM022300 08016G22KT P6SM SCT020 SCT040
     FM030900 07011KT P6SM FEW020 SCT040=



000
FTPQ31 PGUM 020545
TAFGUM
TAF
PGUM 020545Z 0206/0312 08015G20KT P6SM SCT025 SCT050
     FM020900 07011KT P6SM FEW020 SCT040
     FM030000 07018G22KT P6SM SCT020 SCT040=



000
FTPQ31 PGUM 020545
TAFGUM
TAF
PGUM 020545Z 0206/0312 08015G20KT P6SM SCT025 SCT050
     FM020900 07011KT P6SM FEW020 SCT040
     FM030000 07018G22KT P6SM SCT020 SCT040=



000
FTPQ31 PGUM 020545
TAFGUM
TAF
PGUM 020545Z 0206/0312 08015G20KT P6SM SCT025 SCT050
     FM020900 07011KT P6SM FEW020 SCT040
     FM030000 07018G22KT P6SM SCT020 SCT040=



000
FTPQ31 PGUM 020545
TAFGUM
TAF
PGUM 020545Z 0206/0312 08015G20KT P6SM SCT025 SCT050
     FM020900 07011KT P6SM FEW020 SCT040
     FM030000 07018G22KT P6SM SCT020 SCT040=



000
FTPQ31 PGUM 012350
TAFGUM
TAF
PGUM 012350Z 0200/0306 08015G20KT P6SM VCSH SCT025 SCT050
     FM020900 07011KT P6SM VCSH FEW020 SCT040
     FM030000 07018G22KT P6SM SCT020 SCT040=



000
FTPQ31 PGUM 012350
TAFGUM
TAF
PGUM 012350Z 0200/0306 08015G20KT P6SM VCSH SCT025 SCT050
     FM020900 07011KT P6SM VCSH FEW020 SCT040
     FM030000 07018G22KT P6SM SCT020 SCT040=



000
FTPQ31 PGUM 012350
TAFGUM
TAF
PGUM 012350Z 0200/0306 08015G20KT P6SM VCSH SCT025 SCT050
     FM020900 07011KT P6SM VCSH FEW020 SCT040
     FM030000 07018G22KT P6SM SCT020 SCT040=



000
FTPQ31 PGUM 012350
TAFGUM
TAF
PGUM 012350Z 0200/0306 08015G20KT P6SM VCSH SCT025 SCT050
     FM020900 07011KT P6SM VCSH FEW020 SCT040
     FM030000 07018G22KT P6SM SCT020 SCT040=



    US Dept of Commerce
    National Oceanic and Atmospheric Administration
    National Weather Service
    1325 East West Highway
    Silver Spring, MD 20910
    Page Author: NWS Internet Services Team
Disclaimer
Information Quality
Credits
Glossary
Privacy Policy
Freedom of Information Act (FOIA)
About Us
Career Opportunities